sensor_id;sensor_type;location;lat;lon;timestamp;pressure;altitude;pressure_sealevel;temperature;humidity
85343;BME280;75760;31.390;34.904;2024-01-15T14:33:07;95632.81;;;18.56;47.97
85343;BME280;75760;31.390;34.904;2024-01-15T14:35:33;95637.03;;;18.57;47.62
85343;BME280;75760;31.390;34.904;2024-01-15T14:37:59;95641.63;;;18.51;48.15
85343;BME280;75760;31.390;34.904;2024-01-15T14:40:27;95648.94;;;18.45;48.12
85343;BME280;75760;31.390;34.904;2024-01-15T14:42:53;95653.50;;;18.39;48.17
85343;BME280;75760;31.390;34.904;2024-01-15T14:45:20;95648.31;;;18.35;48.48
85343;BME280;75760;31.390;34.904;2024-01-15T14:47:46;95658.75;;;18.28;48.70
85343;BME280;75760;31.390;34.904;2024-01-15T14:50:12;95650.88;;;18.24;48.98
85343;BME280;75760;31.390;34.904;2024-01-15T14:52:38;95661.81;;;18.15;49.37
85343;BME280;75760;31.390;34.904;2024-01-15T14:55:05;95653.63;;;18.09;49.02
85343;BME280;75760;31.390;34.904;2024-01-15T14:57:31;95662.47;;;18.10;48.35
85343;BME280;75760;31.390;34.904;2024-01-15T14:59:56;95667.34;;;18.06;48.44
85343;BME280;75760;31.390;34.904;2024-01-15T15:02:23;95670.41;;;17.99;48.36
85343;BME280;75760;31.390;34.904;2024-01-15T15:04:51;95667.47;;;17.97;48.57
85343;BME280;75760;31.390;34.904;2024-01-15T15:07:17;95671.56;;;17.92;49.10
85343;BME280;75760;31.390;34.904;2024-01-15T15:09:42;95672.00;;;17.91;49.42
85343;BME280;75760;31.390;34.904;2024-01-15T15:12:08;95682.06;;;17.90;49.17
85343;BME280;75760;31.390;34.904;2024-01-15T15:14:34;95675.66;;;17.88;49.45
85343;BME280;75760;31.390;34.904;2024-01-15T15:17:05;95677.34;;;17.85;49.62
85343;BME280;75760;31.390;34.904;2024-01-15T15:19:31;95687.56;;;17.81;49.68
85343;BME280;75760;31.390;34.904;2024-01-15T15:21:58;95690.28;;;17.81;50.06
85343;BME280;75760;31.390;34.904;2024-01-15T15:24:23;95699.50;;;17.74;50.20
85343;BME280;75760;31.390;34.904;2024-01-15T15:26:49;95695.31;;;17.73;50.77
85343;BME280;75760;31.390;34.904;2024-01-15T15:29:14;95701.94;;;17.72;50.66
85343;BME280;75760;31.390;34.904;2024-01-15T15:31:42;95701.94;;;17.72;50.94
85343;BME280;75760;31.390;34.904;2024-01-15T15:34:08;95698.75;;;17.74;51.17
85343;BME280;75760;31.390;34.904;2024-01-15T15:36:34;95708.63;;;17.77;51.09
85343;BME280;75760;31.390;34.904;2024-01-15T15:38:59;95703.69;;;17.75;51.39
85343;BME280;75760;31.390;34.904;2024-01-15T15:52:50;95708.50;;;13.09;62.98
85343;BME280;75760;31.390;34.904;2024-01-15T15:55:15;95708.75;;;13.02;62.91
85343;BME280;75760;31.390;34.904;2024-01-15T15:57:41;95702.44;;;12.74;62.80
85343;BME280;75760;31.390;34.904;2024-01-15T16:00:06;95704.34;;;12.52;62.92
85343;BME280;75760;31.390;34.904;2024-01-15T16:02:32;95713.44;;;12.42;63.28
85343;BME280;75760;31.390;34.904;2024-01-15T16:04:57;95720.03;;;12.28;62.72
85343;BME280;75760;31.390;34.904;2024-01-15T16:07:23;95709.66;;;12.30;62.98
85343;BME280;75760;31.390;34.904;2024-01-15T16:09:53;95713.16;;;12.40;62.78
85343;BME280;75760;31.390;34.904;2024-01-15T16:12:19;95720.72;;;12.41;62.11
85343;BME280;75760;31.390;34.904;2024-01-15T16:14:45;95724.41;;;12.22;62.63
85343;BME280;75760;31.390;34.904;2024-01-15T16:17:10;95720.78;;;12.29;62.67
85343;BME280;75760;31.390;34.904;2024-01-15T16:19:36;95726.13;;;12.29;62.29
85343;BME280;75760;31.390;34.904;2024-01-15T16:22:01;95732.53;;;12.31;61.94
85343;BME280;75760;31.390;34.904;2024-01-15T16:24:27;95730.16;;;12.33;61.79
85343;BME280;75760;31.390;34.904;2024-01-15T16:26:59;95736.63;;;12.10;63.71
85343;BME280;75760;31.390;34.904;2024-01-15T16:29:28;95734.59;;;12.02;63.73
85343;BME280;75760;31.390;34.904;2024-01-15T16:31:54;95736.53;;;12.01;63.51
85343;BME280;75760;31.390;34.904;2024-01-15T16:34:19;95735.88;;;12.10;63.22
85343;BME280;75760;31.390;34.904;2024-01-15T16:36:45;95735.22;;;12.18;63.35
85343;BME280;75760;31.390;34.904;2024-01-15T16:39:10;95730.41;;;12.13;63.24
85343;BME280;75760;31.390;34.904;2024-01-15T16:41:35;95730.72;;;12.15;63.53
85343;BME280;75760;31.390;34.904;2024-01-15T16:44:01;95735.66;;;12.17;62.92
85343;BME280;75760;31.390;34.904;2024-01-15T16:46:26;95728.25;;;12.21;62.67
85343;BME280;75760;31.390;34.904;2024-01-15T16:48:51;95738.75;;;12.15;63.16
85343;BME280;75760;31.390;34.904;2024-01-15T16:51:17;95733.97;;;12.10;63.08
85343;BME280;75760;31.390;34.904;2024-01-15T16:53:42;95738.84;;;12.12;63.14
85343;BME280;75760;31.390;34.904;2024-01-15T16:56:08;95741.25;;;12.10;63.19
85343;BME280;75760;31.390;34.904;2024-01-15T16:58:33;95740.38;;;12.00;63.56
85343;BME280;75760;31.390;34.904;2024-01-15T17:00:59;95741.97;;;11.98;63.67
85343;BME280;75760;31.390;34.904;2024-01-15T17:03:25;95740.91;;;11.95;63.89
85343;BME280;75760;31.390;34.904;2024-01-15T17:05:51;95737.06;;;11.96;63.63
85343;BME280;75760;31.390;34.904;2024-01-15T17:08:16;95739.63;;;12.00;63.22
85343;BME280;75760;31.390;34.904;2024-01-15T17:10:43;95731.63;;;12.00;63.32
85343;BME280;75760;31.390;34.904;2024-01-15T17:13:08;95730.88;;;11.99;62.70
85343;BME280;75760;31.390;34.904;2024-01-15T17:15:34;95738.13;;;11.99;62.84
85343;BME280;75760;31.390;34.904;2024-01-15T17:18:00;95743.47;;;11.99;62.84
85343;BME280;75760;31.390;34.904;2024-01-15T17:20:25;95731.28;;;11.98;62.31
85343;BME280;75760;31.390;34.904;2024-01-15T17:22:51;95731.28;;;11.98;62.93
85343;BME280;75760;31.390;34.904;2024-01-15T17:25:16;95740.22;;;11.66;64.01
85343;BME280;75760;31.390;34.904;2024-01-15T17:27:42;95739.78;;;11.42;64.85
85343;BME280;75760;31.390;34.904;2024-01-15T17:30:08;95741.88;;;11.34;64.67
85343;BME280;75760;31.390;34.904;2024-01-15T17:32:34;95745.53;;;11.40;64.70
85343;BME280;75760;31.390;34.904;2024-01-15T17:35:01;95749.16;;;11.46;64.02
85343;BME280;75760;31.390;34.904;2024-01-15T17:37:27;95748.44;;;11.59;64.04
85343;BME280;75760;31.390;34.904;2024-01-15T17:39:53;95758.25;;;11.49;64.05
85343;BME280;75760;31.390;34.904;2024-01-15T17:42:19;95754.00;;;11.51;64.07
85343;BME280;75760;31.390;34.904;2024-01-15T17:44:44;95745.84;;;11.42;64.10
85343;BME280;75760;31.390;34.904;2024-01-15T17:47:11;95742.19;;;11.36;64.09
85343;BME280;75760;31.390;34.904;2024-01-15T17:49:37;95758.34;;;11.33;63.03
85343;BME280;75760;31.390;34.904;2024-01-15T17:52:03;95755.13;;;11.38;63.16
85343;BME280;75760;31.390;34.904;2024-01-15T17:54:29;95748.28;;;11.37;63.12
85343;BME280;75760;31.390;34.904;2024-01-15T17:56:58;95751.38;;;11.35;63.16
85343;BME280;75760;31.390;34.904;2024-01-15T17:59:24;95757.06;;;11.37;63.62
85343;BME280;75760;31.390;34.904;2024-01-15T18:01:51;95751.72;;;11.37;63.65
85343;BME280;75760;31.390;34.904;2024-01-15T18:04:17;95751.91;;;11.30;64.26
85343;BME280;75760;31.390;34.904;2024-01-15T18:06:49;95754.78;;;11.23;64.72
85343;BME280;75760;31.390;34.904;2024-01-15T18:09:16;95752.41;;;11.25;64.74
85343;BME280;75760;31.390;34.904;2024-01-15T18:11:44;95764.38;;;11.21;65.08
85343;BME280;75760;31.390;34.904;2024-01-15T18:14:14;95762.47;;;11.21;65.54
85343;BME280;75760;31.390;34.904;2024-01-15T18:16:40;95764.59;;;11.26;65.36
85343;BME280;75760;31.390;34.904;2024-01-15T18:19:10;95756.94;;;11.28;65.84
85343;BME280;75760;31.390;34.904;2024-01-15T18:21:36;95766.03;;;11.31;65.24
85343;BME280;75760;31.390;34.904;2024-01-15T18:24:03;95766.22;;;11.24;65.51
85343;BME280;75760;31.390;34.904;2024-01-15T18:26:29;95759.25;;;11.26;65.40
85343;BME280;75760;31.390;34.904;2024-01-15T18:28:54;95771.22;;;11.22;65.41
85343;BME280;75760;31.390;34.904;2024-01-15T18:31:20;95770.91;;;11.20;65.81
85343;BME280;75760;31.390;34.904;2024-01-15T18:33:47;95775.88;;;11.05;66.71
85343;BME280;75760;31.390;34.904;2024-01-15T18:36:13;95775.22;;;11.01;66.36
85343;BME280;75760;31.390;34.904;2024-01-15T18:38:39;95769.19;;;10.97;66.62
85343;BME280;75760;31.390;34.904;2024-01-15T18:41:05;95770.81;;;10.94;66.75
85343;BME280;75760;31.390;34.904;2024-01-15T18:43:31;95776.97;;;10.91;66.54
85343;BME280;75760;31.390;34.904;2024-01-15T18:46:06;95779.31;;;10.89;66.98
85343;BME280;75760;31.390;34.904;2024-01-15T18:48:34;95777.22;;;10.97;66.61
85343;BME280;75760;31.390;34.904;2024-01-15T18:51:00;95776.78;;;10.98;66.12
85343;BME280;75760;31.390;34.904;2024-01-15T18:53:26;95775.41;;;10.94;66.24
85343;BME280;75760;31.390;34.904;2024-01-15T18:55:52;95779.56;;;10.95;66.55
85343;BME280;75760;31.390;34.904;2024-01-15T18:58:18;95780.63;;;10.97;66.01
85343;BME280;75760;31.390;34.904;2024-01-15T19:00:44;95777.66;;;10.95;65.98
85343;BME280;75760;31.390;34.904;2024-01-15T19:03:09;95772.72;;;10.94;66.36
85343;BME280;75760;31.390;34.904;2024-01-15T19:05:38;95773.81;;;10.80;66.76
85343;BME280;75760;31.390;34.904;2024-01-15T19:08:04;95782.66;;;10.77;67.11
85343;BME280;75760;31.390;34.904;2024-01-15T19:10:30;95781.59;;;10.74;67.05
85343;BME280;75760;31.390;34.904;2024-01-15T19:12:55;95773.56;;;10.91;66.64
85343;BME280;75760;31.390;34.904;2024-01-15T19:15:24;95771.44;;;10.98;65.69
85343;BME280;75760;31.390;34.904;2024-01-15T19:17:49;95776.97;;;10.91;65.95
85343;BME280;75760;31.390;34.904;2024-01-15T19:20:15;95780.03;;;10.61;67.58
85343;BME280;75760;31.390;34.904;2024-01-15T19:22:41;95779.19;;;10.48;68.40
85343;BME280;75760;31.390;34.904;2024-01-15T19:25:07;95785.88;;;10.39;68.85
85343;BME280;75760;31.390;34.904;2024-01-15T19:27:33;95783.78;;;10.31;69.10
85343;BME280;75760;31.390;34.904;2024-01-15T19:30:00;95791.63;;;10.38;69.01
85343;BME280;75760;31.390;34.904;2024-01-15T19:32:25;95794.09;;;10.29;69.05
85343;BME280;75760;31.390;34.904;2024-01-15T19:34:51;95796.13;;;10.25;69.39
85343;BME280;75760;31.390;34.904;2024-01-15T19:37:16;95793.19;;;10.19;69.81
85343;BME280;75760;31.390;34.904;2024-01-15T19:39:42;95793.53;;;10.21;69.39
85343;BME280;75760;31.390;34.904;2024-01-15T19:42:07;95792.84;;;10.17;69.84
85343;BME280;75760;31.390;34.904;2024-01-15T19:44:33;95796.38;;;10.30;69.22
85343;BME280;75760;31.390;34.904;2024-01-15T19:46:59;95790.09;;;10.21;69.67
85343;BME280;75760;31.390;34.904;2024-01-15T19:49:24;95787.00;;;10.06;70.27
85343;BME280;75760;31.390;34.904;2024-01-15T19:51:50;95786.31;;;10.02;70.74
85343;BME280;75760;31.390;34.904;2024-01-15T19:54:16;95782.88;;;10.01;70.40
85343;BME280;75760;31.390;34.904;2024-01-15T19:56:43;95787.41;;;10.04;70.29
85343;BME280;75760;31.390;34.904;2024-01-15T19:59:09;95782.00;;;10.08;70.45
85343;BME280;75760;31.390;34.904;2024-01-15T20:01:35;95781.56;;;10.10;70.23
85343;BME280;75760;31.390;34.904;2024-01-15T20:04:00;95782.66;;;10.12;70.30
85343;BME280;75760;31.390;34.904;2024-01-15T20:06:27;95783.81;;;10.11;70.63
85343;BME280;75760;31.390;34.904;2024-01-15T20:08:53;95781.16;;;10.11;70.27
85343;BME280;75760;31.390;34.904;2024-01-15T20:11:19;95779.50;;;10.17;69.89
85343;BME280;75760;31.390;34.904;2024-01-15T20:13:45;95783.94;;;10.24;69.31
85343;BME280;75760;31.390;34.904;2024-01-15T20:16:12;95776.94;;;10.30;69.07
85343;BME280;75760;31.390;34.904;2024-01-15T20:18:39;95778.38;;;10.34;68.96
85343;BME280;75760;31.390;34.904;2024-01-15T20:21:04;95773.19;;;10.44;68.28
85343;BME280;75760;31.390;34.904;2024-01-15T20:23:32;95766.88;;;10.37;68.77
85343;BME280;75760;31.390;34.904;2024-01-15T20:25:58;95775.78;;;10.31;69.03
85343;BME280;75760;31.390;34.904;2024-01-15T20:28:24;95780.19;;;10.21;69.53
85343;BME280;75760;31.390;34.904;2024-01-15T20:30:50;95779.81;;;10.03;70.67
85343;BME280;75760;31.390;34.904;2024-01-15T20:33:15;95780.97;;;10.02;70.03
85343;BME280;75760;31.390;34.904;2024-01-15T20:35:41;95778.25;;;10.05;69.80
85343;BME280;75760;31.390;34.904;2024-01-15T20:38:07;95779.00;;;10.06;69.91
85343;BME280;75760;31.390;34.904;2024-01-15T20:40:32;95775.06;;;10.11;69.41
85343;BME280;75760;31.390;34.904;2024-01-15T20:42:58;95775.56;;;10.05;69.25
85343;BME280;75760;31.390;34.904;2024-01-15T20:45:24;95770.47;;;9.95;69.87
85343;BME280;75760;31.390;34.904;2024-01-15T20:47:50;95767.06;;;9.94;69.88
85343;BME280;75760;31.390;34.904;2024-01-15T20:50:15;95755.72;;;9.90;70.48
85343;BME280;75760;31.390;34.904;2024-01-15T20:52:41;95758.72;;;9.92;70.05
85343;BME280;75760;31.390;34.904;2024-01-15T20:55:07;95752.97;;;9.94;69.73
85343;BME280;75760;31.390;34.904;2024-01-15T20:57:34;95741.16;;;9.95;69.54
85343;BME280;75760;31.390;34.904;2024-01-15T20:59:59;95748.97;;;9.86;69.96
85343;BME280;75760;31.390;34.904;2024-01-15T21:02:25;95748.63;;;9.84;70.14
85343;BME280;75760;31.390;34.904;2024-01-15T21:04:50;95739.81;;;9.87;70.09
85343;BME280;75760;31.390;34.904;2024-01-15T21:07:16;95729.97;;;9.84;70.28
85343;BME280;75760;31.390;34.904;2024-01-15T21:09:42;95730.72;;;9.84;69.94
85343;BME280;75760;31.390;34.904;2024-01-15T21:12:07;95724.16;;;9.89;69.33
85343;BME280;75760;31.390;34.904;2024-01-15T21:14:33;95721.91;;;9.87;69.72
85343;BME280;75760;31.390;34.904;2024-01-15T21:17:03;95711.31;;;9.84;69.27
85343;BME280;75760;31.390;34.904;2024-01-15T21:19:28;95714.09;;;9.80;69.93
85343;BME280;75760;31.390;34.904;2024-01-15T21:21:54;95708.75;;;9.80;69.55
85343;BME280;75760;31.390;34.904;2024-01-15T21:24:20;95708.31;;;9.82;70.03
85343;BME280;75760;31.390;34.904;2024-01-15T21:26:51;95699.84;;;9.87;69.29
85343;BME280;75760;31.390;34.904;2024-01-15T21:29:18;95703.72;;;10.18;67.54
85343;BME280;75760;31.390;34.904;2024-01-15T21:31:43;95697.59;;;10.34;66.58
85343;BME280;75760;31.390;34.904;2024-01-15T21:34:09;95695.66;;;10.51;66.05
85343;BME280;75760;31.390;34.904;2024-01-15T21:36:38;95686.81;;;10.54;65.74
85343;BME280;75760;31.390;34.904;2024-01-15T21:39:03;95690.31;;;10.51;65.74
85343;BME280;75760;31.390;34.904;2024-01-15T21:41:29;95688.94;;;10.46;66.30
85343;BME280;75760;31.390;34.904;2024-01-15T21:43:55;95690.25;;;10.54;65.56
85343;BME280;75760;31.390;34.904;2024-01-15T21:46:23;95689.63;;;10.63;65.29
85343;BME280;75760;31.390;34.904;2024-01-15T21:48:50;95686.22;;;10.62;65.17
85343;BME280;75760;31.390;34.904;2024-01-15T21:51:16;95674.22;;;10.54;65.61
85343;BME280;75760;31.390;34.904;2024-01-15T21:53:42;95666.69;;;10.36;66.28
85343;BME280;75760;31.390;34.904;2024-01-15T21:56:07;95672.47;;;10.48;65.84
85343;BME280;75760;31.390;34.904;2024-01-15T21:58:33;95676.03;;;10.57;65.83
85343;BME280;75760;31.390;34.904;2024-01-15T22:00:59;95669.38;;;10.65;65.47
85343;BME280;75760;31.390;34.904;2024-01-15T22:03:24;95670.97;;;10.63;65.64
85343;BME280;75760;31.390;34.904;2024-01-15T22:05:50;95667.81;;;10.52;65.91
85343;BME280;75760;31.390;34.904;2024-01-15T22:08:16;95675.16;;;10.48;65.96
85343;BME280;75760;31.390;34.904;2024-01-15T22:10:41;95681.94;;;10.36;66.39
85343;BME280;75760;31.390;34.904;2024-01-15T22:13:07;95683.81;;;10.52;66.08
85343;BME280;75760;31.390;34.904;2024-01-15T22:15:32;95683.00;;;10.38;66.35
85343;BME280;75760;31.390;34.904;2024-01-15T22:17:58;95683.66;;;10.43;66.19
85343;BME280;75760;31.390;34.904;2024-01-15T22:20:24;95675.44;;;10.37;66.44
85343;BME280;75760;31.390;34.904;2024-01-15T22:22:49;95679.75;;;10.47;66.05
85343;BME280;75760;31.390;34.904;2024-01-15T22:25:15;95676.50;;;10.56;65.63
85343;BME280;75760;31.390;34.904;2024-01-15T22:27:41;95675.53;;;10.62;65.26
85343;BME280;75760;31.390;34.904;2024-01-15T22:30:06;95673.44;;;10.70;65.10
85343;BME280;75760;31.390;34.904;2024-01-15T22:32:32;95682.19;;;10.70;65.01
85343;BME280;75760;31.390;34.904;2024-01-15T22:34:58;95684.78;;;10.74;64.49
85343;BME280;75760;31.390;34.904;2024-01-15T22:37:24;95677.09;;;10.76;64.42
85343;BME280;75760;31.390;34.904;2024-01-15T22:39:50;95681.34;;;10.73;64.53
85343;BME280;75760;31.390;34.904;2024-01-15T22:42:16;95681.78;;;10.72;64.64
85343;BME280;75760;31.390;34.904;2024-01-15T22:44:42;95690.81;;;10.62;64.85
85343;BME280;75760;31.390;34.904;2024-01-15T22:47:07;95688.47;;;10.64;65.21
85343;BME280;75760;31.390;34.904;2024-01-15T22:49:33;95688.97;;;10.59;65.19
85343;BME280;75760;31.390;34.904;2024-01-15T22:51:58;95691.81;;;10.52;65.68
85343;BME280;75760;31.390;34.904;2024-01-15T22:54:24;95688.81;;;10.50;65.39
85343;BME280;75760;31.390;34.904;2024-01-15T22:56:50;95685.81;;;10.48;65.14
85343;BME280;75760;31.390;34.904;2024-01-15T22:59:16;95687.44;;;10.45;65.38
85343;BME280;75760;31.390;34.904;2024-01-15T23:01:45;95683.44;;;10.37;65.90
85343;BME280;75760;31.390;34.904;2024-01-15T23:04:13;95686.53;;;10.35;65.89
85343;BME280;75760;31.390;34.904;2024-01-15T23:06:39;95685.59;;;10.42;65.60
85343;BME280;75760;31.390;34.904;2024-01-15T23:09:06;95687.88;;;10.27;65.92
85343;BME280;75760;31.390;34.904;2024-01-15T23:11:31;95684.19;;;10.21;66.28
85343;BME280;75760;31.390;34.904;2024-01-15T23:13:57;95673.94;;;10.20;66.73
85343;BME280;75760;31.390;34.904;2024-01-15T23:16:23;95677.69;;;10.06;67.14
85343;BME280;75760;31.390;34.904;2024-01-15T23:18:48;95672.19;;;10.13;66.19
85343;BME280;75760;31.390;34.904;2024-01-15T23:21:14;95660.75;;;10.13;66.59
85343;BME280;75760;31.390;34.904;2024-01-15T23:23:40;95660.94;;;10.05;66.48
85343;BME280;75760;31.390;34.904;2024-01-15T23:26:05;95663.50;;;9.93;67.50
85343;BME280;75760;31.390;34.904;2024-01-15T23:28:31;95651.34;;;9.92;67.29
85343;BME280;75760;31.390;34.904;2024-01-15T23:30:57;95649.38;;;9.80;67.68
85343;BME280;75760;31.390;34.904;2024-01-15T23:33:23;95643.13;;;9.70;67.72
85343;BME280;75760;31.390;34.904;2024-01-15T23:35:49;95652.63;;;9.87;67.16
85343;BME280;75760;31.390;34.904;2024-01-15T23:38:15;95653.19;;;9.79;67.22
85343;BME280;75760;31.390;34.904;2024-01-15T23:40:41;95659.19;;;9.83;67.30
85343;BME280;75760;31.390;34.904;2024-01-15T23:43:07;95656.94;;;9.97;66.56
85343;BME280;75760;31.390;34.904;2024-01-15T23:45:32;95663.69;;;10.02;66.12
85343;BME280;75760;31.390;34.904;2024-01-15T23:47:58;95652.13;;;10.09;65.64
85343;BME280;75760;31.390;34.904;2024-01-15T23:50:23;95653.81;;;10.19;65.32
85343;BME280;75760;31.390;34.904;2024-01-15T23:52:49;95648.69;;;10.24;65.55
85343;BME280;75760;31.390;34.904;2024-01-15T23:55:15;95653.28;;;10.24;64.83
85343;BME280;75760;31.390;34.904;2024-01-15T23:57:41;95655.13;;;10.27;64.82
